Jennifer C — WDI8828 — position and weather

sailwx.info

Track history (hours):
 
Tides and Currents Weather Stations Pressure Air Temp Water Temp Dewpoint Dewpoint Depression Visibility Wind Speed Wind Dir Waves Ship Positions

Jennifer C

Owner: Cross Sound Ferry Services, Inc, New London, CT. More information available from US FCC via Universal Licensing System and Coast Guard Vessel Documentation Center.

Last reported at 2017-Sep-25 19:00 UTC. Time now 2017-Sep-25 19:07 UTC.
Position N 41°17' W 072°06'.

Length 63 m.

Type: Passenger vessel. MMSI: 367742540.

Date/timePositionNaut miles runAvg speedWind from/ knotsBaromVisibWave heightAir tempDewpointWater temp
2017-Sep-25 19:00N 41°17' W 072°06'1 1.0
2017-Sep-25 17:41N 41°18' W 072°05'212.3
2017-Sep-25 17:30N 41°16' W 072°06'611.0
2017-Sep-25 17:00N 41°12' W 072°11'3 1.9
2017-Sep-25 15:40N 41°10' W 072°13'211.9
2017-Sep-25 15:30N 41°12' W 072°13'7 3.5
2017-Sep-25 13:27N 41°17' W 072°06'612.7
2017-Sep-25 13:00N 41°13' W 072°11'3 2.1
2017-Sep-25 11:44N 41°11' W 072°14'410.7
2017-Sep-25 11:23N 41°13' W 072°10'7 0.7
2017-Sep-25 01:39N 41°19' W 072°05'211.9
2017-Sep-25 01:29N 41°17' W 072°05'612.5
2017-Sep-25 01:00N 41°13' W 072°11'4 8.4
2017-Sep-25 00:29N 41°09' W 072°14'1 1.5
2017-Sep-24 23:48N 41°10' W 072°13'410.0
2017-Sep-24 23:23N 41°14' W 072°11'410.9
2017-Sep-24 23:00N 41°17' W 072°07'1 0.6
2017-Sep-24 21:18N 41°16' W 072°07'413.4
2017-Sep-24 20:58N 41°13' W 072°12'1 0.7
2017-Sep-24 19:34N 41°12' W 072°12'111.0
2017-Sep-24 19:30N 41°13' W 072°12'8 4.1
2017-Sep-24 17:40N 41°18' W 072°05'212.4
2017-Sep-24 17:31N 41°16' W 072°06'611.1
2017-Sep-24 17:00N 41°13' W 072°11'1 0.8
2017-Sep-24 15:29N 41°12' W 072°13'5 2.1
2017-Sep-24 13:18N 41°15' W 072°08'412.2
2017-Sep-24 13:00N 41°12' W 072°11'1 0.6
2017-Sep-24 11:34N 41°12' W 072°12'211.2
2017-Sep-24 11:23N 41°13' W 072°10'1 0.1
2017-Sep-24 01:08N 41°14' W 072°09'212.2
2017-Sep-24 00:56N 41°12' W 072°11'1 0.6
2017-Sep-23 23:32N 41°12' W 072°12'011.2
2017-Sep-23 23:30N 41°12' W 072°12'3 1.1
2017-Sep-23 21:05N 41°14' W 072°09'214.4
2017-Sep-23 20:58N 41°12' W 072°11'2 0.0
2017-Sep-22 01:16N 41°14' W 072°09'3 9.8
2017-Sep-22 01:00N 41°12' W 072°12'2 1.4
2017-Sep-21 23:18N 41°14' W 072°10'3 1.8
2017-Sep-21 21:25N 41°15' W 072°06'613.1
2017-Sep-21 20:57N 41°12' W 072°12'1 0.5
2017-Sep-21 19:43N 41°12' W 072°12'210.5
2017-Sep-21 19:30N 41°14' W 072°10'3 1.7
2017-Sep-21 17:32N 41°15' W 072°07'111.8
2017-Sep-21 17:29N 41°15' W 072°07'2 0.6
2017-Sep-21 13:23N 41°14' W 072°10'4 9.6
2017-Sep-21 12:58N 41°11' W 072°13'  
2017-Sep-18 21:08N 41°13' W 072°10'212.2
2017-Sep-18 20:57N 41°12' W 072°12'2 1.2
2017-Sep-18 19:21N 41°13' W 072°10'1 0.3
2017-Sep-18 17:06N 41°14' W 072°09'214.5
2017-Sep-18 16:59N 41°12' W 072°11'2 0.4
2017-Sep-18 13:10N 41°14' W 072°10'210.3
2017-Sep-18 12:57N 41°12' W 072°11'1 0.6
2017-Sep-18 11:27N 41°12' W 072°13'3 0.3
2017-Sep-18 01:10N 41°14' W 072°09'211.1
2017-Sep-18 00:57N 41°12' W 072°12'1 0.7
2017-Sep-17 23:29N 41°12' W 072°13'3 1.4
2017-Sep-17 21:11N 41°14' W 072°09'211.5
2017-Sep-17 20:58N 41°12' W 072°12'1 0.6
2017-Sep-17 19:40N 41°12' W 072°13'210.4
2017-Sep-17 19:30N 41°13' W 072°11'3 1.3
2017-Sep-17 17:13N 41°15' W 072°08'314.3
2017-Sep-17 17:00N 41°13' W 072°10'2 1.2
2017-Sep-17 15:36N 41°12' W 072°12'2 9.7
2017-Sep-17 15:27N 41°13' W 072°11'2 0.7
2017-Sep-17 13:09N 41°14' W 072°09'211.5
2017-Sep-17 12:58N 41°12' W 072°12'2 1.6
2017-Sep-17 11:34N 41°12' W 072°14'113.0
2017-Sep-17 11:28N 41°13' W 072°14'7 0.7
2017-Sep-17 01:31N 41°17' W 072°05'512.5
2017-Sep-17 01:09N 41°14' W 072°09'212.7
2017-Sep-17 00:59N 41°12' W 072°11'4 7.8
2017-Sep-17 00:30N 41°09' W 072°14'1 1.6
2017-Sep-16 23:42N 41°10' W 072°13'211.1
2017-Sep-16 23:31N 41°12' W 072°13'713.4
2017-Sep-16 23:00N 41°17' W 072°06'4 3.4
2017-Sep-16 21:49N 41°21' W 072°05'411.5
2017-Sep-16 21:28N 41°17' W 072°06'611.0
2017-Sep-16 20:57N 41°13' W 072°11'3 2.4
2017-Sep-16 19:44N 41°10' W 072°13'311.4
2017-Sep-16 19:30N 41°13' W 072°12'612.0
2017-Sep-16 19:00N 41°17' W 072°06'1 0.9
2017-Sep-16 17:23N 41°15' W 072°05'513.5
2017-Sep-16 16:59N 41°12' W 072°11'1 0.7
2017-Sep-16 15:41N 41°12' W 072°12'2 9.7
2017-Sep-16 15:29N 41°13' W 072°10'5 2.4
2017-Sep-16 13:28N 41°17' W 072°06'612.5
2017-Sep-16 12:59N 41°13' W 072°11'1 0.6
2017-Sep-16 11:19N 41°13' W 072°11'6 0.6
2017-Sep-16 01:31N 41°18' W 072°05'012.5
2017-Sep-16 01:30N 41°18' W 072°05'713.1
2017-Sep-16 00:58N 41°12' W 072°11'3 2.7
2017-Sep-15 23:43N 41°09' W 072°13'311.2
2017-Sep-15 23:28N 41°12' W 072°12'3 1.2
2017-Sep-15 21:11N 41°14' W 072°09'210.5
2017-Sep-15 21:00N 41°12' W 072°11'  
Track history (hours):
 
Tides and Currents Weather Stations Pressure Air Temp Water Temp Dewpoint Dewpoint Depression Visibility Wind Speed Wind Dir Waves Ship Positions

Jennifer C

Owner: Cross Sound Ferry Services, Inc, New London, CT. More information available from US FCC via Universal Licensing System and Coast Guard Vessel Documentation Center.

Last reported at 2017-Sep-25 19:00 UTC. Time now 2017-Sep-25 19:07 UTC.
Position N 41°17' W 072°06'.

Length 63 m.

Type: Passenger vessel. MMSI: 367742540.

Date/timePositionNaut miles runAvg speedWind from/ knotsBaromVisibWave heightAir tempDewpointWater temp
2017-Sep-25 19:00N 41°17' W 072°06'1 1.0
2017-Sep-25 17:41N 41°18' W 072°05'212.3
2017-Sep-25 17:30N 41°16' W 072°06'611.0
2017-Sep-25 17:00N 41°12' W 072°11'3 1.9
2017-Sep-25 15:40N 41°10' W 072°13'211.9
2017-Sep-25 15:30N 41°12' W 072°13'7 3.5
2017-Sep-25 13:27N 41°17' W 072°06'612.7
2017-Sep-25 13:00N 41°13' W 072°11'3 2.1
2017-Sep-25 11:44N 41°11' W 072°14'410.7
2017-Sep-25 11:23N 41°13' W 072°10'7 0.7
2017-Sep-25 01:39N 41°19' W 072°05'211.9
2017-Sep-25 01:29N 41°17' W 072°05'612.5
2017-Sep-25 01:00N 41°13' W 072°11'4 8.4
2017-Sep-25 00:29N 41°09' W 072°14'1 1.5
2017-Sep-24 23:48N 41°10' W 072°13'410.0
2017-Sep-24 23:23N 41°14' W 072°11'410.9
2017-Sep-24 23:00N 41°17' W 072°07'1 0.6
2017-Sep-24 21:18N 41°16' W 072°07'413.4
2017-Sep-24 20:58N 41°13' W 072°12'1 0.7
2017-Sep-24 19:34N 41°12' W 072°12'111.0
2017-Sep-24 19:30N 41°13' W 072°12'8 4.1
2017-Sep-24 17:40N 41°18' W 072°05'212.4
2017-Sep-24 17:31N 41°16' W 072°06'611.1
2017-Sep-24 17:00N 41°13' W 072°11'1 0.8
2017-Sep-24 15:29N 41°12' W 072°13'5 2.1
2017-Sep-24 13:18N 41°15' W 072°08'412.2
2017-Sep-24 13:00N 41°12' W 072°11'1 0.6
2017-Sep-24 11:34N 41°12' W 072°12'211.2
2017-Sep-24 11:23N 41°13' W 072°10'1 0.1
2017-Sep-24 01:08N 41°14' W 072°09'212.2
2017-Sep-24 00:56N 41°12' W 072°11'1 0.6
2017-Sep-23 23:32N 41°12' W 072°12'011.2
2017-Sep-23 23:30N 41°12' W 072°12'3 1.1
2017-Sep-23 21:05N 41°14' W 072°09'214.4
2017-Sep-23 20:58N 41°12' W 072°11'2 0.0
2017-Sep-22 01:16N 41°14' W 072°09'3 9.8
2017-Sep-22 01:00N 41°12' W 072°12'2 1.4
2017-Sep-21 23:18N 41°14' W 072°10'3 1.8
2017-Sep-21 21:25N 41°15' W 072°06'613.1
2017-Sep-21 20:57N 41°12' W 072°12'1 0.5
2017-Sep-21 19:43N 41°12' W 072°12'210.5
2017-Sep-21 19:30N 41°14' W 072°10'3 1.7
2017-Sep-21 17:32N 41°15' W 072°07'111.8
2017-Sep-21 17:29N 41°15' W 072°07'2 0.6
2017-Sep-21 13:23N 41°14' W 072°10'4 9.6
2017-Sep-21 12:58N 41°11' W 072°13'  
2017-Sep-18 21:08N 41°13' W 072°10'212.2
2017-Sep-18 20:57N 41°12' W 072°12'2 1.2
2017-Sep-18 19:21N 41°13' W 072°10'1 0.3
2017-Sep-18 17:06N 41°14' W 072°09'214.5
2017-Sep-18 16:59N 41°12' W 072°11'2 0.4
2017-Sep-18 13:10N 41°14' W 072°10'210.3
2017-Sep-18 12:57N 41°12' W 072°11'1 0.6
2017-Sep-18 11:27N 41°12' W 072°13'3 0.3
2017-Sep-18 01:10N 41°14' W 072°09'211.1
2017-Sep-18 00:57N 41°12' W 072°12'1 0.7
2017-Sep-17 23:29N 41°12' W 072°13'3 1.4
2017-Sep-17 21:11N 41°14' W 072°09'211.5
2017-Sep-17 20:58N 41°12' W 072°12'1 0.6
2017-Sep-17 19:40N 41°12' W 072°13'210.4
2017-Sep-17 19:30N 41°13' W 072°11'3 1.3
2017-Sep-17 17:13N 41°15' W 072°08'314.3
2017-Sep-17 17:00N 41°13' W 072°10'2 1.2
2017-Sep-17 15:36N 41°12' W 072°12'2 9.7
2017-Sep-17 15:27N 41°13' W 072°11'2 0.7
2017-Sep-17 13:09N 41°14' W 072°09'211.5
2017-Sep-17 12:58N 41°12' W 072°12'2 1.6
2017-Sep-17 11:34N 41°12' W 072°14'113.0
2017-Sep-17 11:28N 41°13' W 072°14'7 0.7
2017-Sep-17 01:31N 41°17' W 072°05'512.5
2017-Sep-17 01:09N 41°14' W 072°09'212.7
2017-Sep-17 00:59N 41°12' W 072°11'4 7.8
2017-Sep-17 00:30N 41°09' W 072°14'1 1.6
2017-Sep-16 23:42N 41°10' W 072°13'211.1
2017-Sep-16 23:31N 41°12' W 072°13'713.4
2017-Sep-16 23:00N 41°17' W 072°06'4 3.4
2017-Sep-16 21:49N 41°21' W 072°05'411.5
2017-Sep-16 21:28N 41°17' W 072°06'611.0
2017-Sep-16 20:57N 41°13' W 072°11'3 2.4
2017-Sep-16 19:44N 41°10' W 072°13'311.4
2017-Sep-16 19:30N 41°13' W 072°12'612.0
2017-Sep-16 19:00N 41°17' W 072°06'1 0.9
2017-Sep-16 17:23N 41°15' W 072°05'513.5
2017-Sep-16 16:59N 41°12' W 072°11'1 0.7
2017-Sep-16 15:41N 41°12' W 072°12'2 9.7
2017-Sep-16 15:29N 41°13' W 072°10'5 2.4
2017-Sep-16 13:28N 41°17' W 072°06'612.5
2017-Sep-16 12:59N 41°13' W 072°11'1 0.6
2017-Sep-16 11:19N 41°13' W 072°11'6 0.6
2017-Sep-16 01:31N 41°18' W 072°05'012.5
2017-Sep-16 01:30N 41°18' W 072°05'713.1
2017-Sep-16 00:58N 41°12' W 072°11'3 2.7
2017-Sep-15 23:43N 41°09' W 072°13'311.2
2017-Sep-15 23:28N 41°12' W 072°12'3 1.2
2017-Sep-15 21:11N 41°14' W 072°09'210.5
2017-Sep-15 21:00N 41°12' W 072°11'  

Dump ship's entire track history